Time;durP1;ratioP1;P1;durP2;ratioP2;P2;SDS_P1;SDS_P2;PMS_P1;PMS_P2;Temp;Humidity;BMP_temperature;BMP_pressure;BME280_temperature;BME280_humidity;BME280_pressure;Samples;Min_cycle;Max_cycle;Signal;HPM_P1;HPM_P2
2022/10/03 00:01:57;;;;;;;;;13.25;12.00;;;;;;;;5083306;28;61805;-74
2022/10/03 00:04:41;;;;;;;;;13.25;10.75;;;;;;;;5084858;28;61676;-74
2022/10/03 00:07:12;;;;;;;;;12.75;10.00;;;;;;;;5083426;27;62213;-74
2022/10/03 00:09:56;;;;;;;;;10.25;9.00;;;;;;;;5082786;28;62309;-74
2022/10/03 00:12:46;;;;;;;;;16.00;12.00;;;;;;;;5084829;27;61999;-75
2022/10/03 00:15:34;;;;;;;;;17.25;9.25;;;;;;;;5084474;27;61897;-74
2022/10/03 00:18:15;;;;;;;;;13.00;10.25;;;;;;;;5083789;28;61809;-74
2022/10/03 00:20:48;;;;;;;;;11.00;10.00;;;;;;;;5082853;28;61778;-74
2022/10/03 00:23:22;;;;;;;;;9.50;7.75;;;;;;;;5083913;28;61834;-74
2022/10/03 00:25:53;;;;;;;;;10.25;10.25;;;;;;;;5084164;28;61786;-74
2022/10/03 00:28:27;;;;;;;;;12.50;9.75;;;;;;;;5082300;28;65198;-74
2022/10/03 00:30:53;;;;;;;;;10.25;7.25;;;;;;;;5084250;28;61780;-75
2022/10/03 00:33:36;;;;;;;;;13.00;9.00;;;;;;;;5082895;28;61759;-74
2022/10/03 00:36:17;;;;;;;;;14.25;9.25;;;;;;;;5082741;28;61978;-74
2022/10/03 00:39:01;;;;;;;;;12.00;10.00;;;;;;;;5082987;28;62046;-74
2022/10/03 00:41:31;;;;;;;;;10.50;8.75;;;;;;;;5084178;27;61885;-74
2022/10/03 00:44:15;;;;;;;;;9.75;9.50;;;;;;;;5082908;28;61769;-74
2022/10/03 00:46:59;;;;;;;;;10.00;10.00;;;;;;;;5083057;28;62004;-74
2022/10/03 00:49:27;;;;;;;;;9.50;7.25;;;;;;;;5083317;28;63312;-74
2022/10/03 00:52:18;;;;;;;;;11.50;9.00;;;;;;;;5082859;28;61944;-74
2022/10/03 00:54:54;;;;;;;;;12.00;9.75;;;;;;;;5083076;28;61911;-74
2022/10/03 00:57:28;;;;;;;;;12.25;10.00;;;;;;;;5084057;27;62025;-74
2022/10/03 01:00:07;;;;;;;;;8.75;8.75;;;;;;;;5082228;28;64795;-74
2022/10/03 01:02:32;;;;;;;;;15.00;10.75;;;;;;;;5083770;28;61874;-74
2022/10/03 01:04:57;;;;;;;;;8.25;8.25;;;;;;;;5082476;27;61856;-75
2022/10/03 01:07:23;;;;;;;;;15.50;12.25;;;;;;;;5082579;28;62287;-75
2022/10/03 01:09:54;;;;;;;;;13.75;9.50;;;;;;;;5083004;27;61952;-74
2022/10/03 01:12:43;;;;;;;;;15.50;11.25;;;;;;;;5082164;28;61802;-75
2022/10/03 01:15:24;;;;;;;;;17.00;13.00;;;;;;;;5083713;28;62070;-75
2022/10/03 01:17:49;;;;;;;;;21.00;13.75;;;;;;;;5083842;27;61859;-75
2022/10/03 01:20:33;;;;;;;;;14.00;10.25;;;;;;;;5081514;28;63674;-74
2022/10/03 01:23:13;;;;;;;;;12.25;10.25;;;;;;;;5081854;28;61809;-74
2022/10/03 01:25:51;;;;;;;;;14.00;10.25;;;;;;;;5082111;28;61874;-75
2022/10/03 01:31:07;;;;;;;;;13.75;11.00;;;;;;;;5082996;28;62673;-74
2022/10/03 01:33:52;;;;;;;;;12.00;10.00;;;;;;;;5083353;28;61883;-75
2022/10/03 01:36:25;;;;;;;;;13.00;12.00;;;;;;;;5083039;28;61970;-75
2022/10/03 01:38:54;;;;;;;;;14.25;11.25;;;;;;;;5083647;28;61735;-75
2022/10/03 01:41:38;;;;;;;;;12.50;10.00;;;;;;;;5082337;28;63215;-75
2022/10/03 01:44:12;;;;;;;;;13.50;10.75;;;;;;;;5083389;28;61869;-74
2022/10/03 01:46:38;;;;;;;;;12.75;9.75;;;;;;;;5083221;28;61865;-75
2022/10/03 01:49:12;;;;;;;;;14.75;10.75;;;;;;;;5082207;28;62004;-74
2022/10/03 01:51:41;;;;;;;;;9.75;9.50;;;;;;;;5079888;27;64953;-74
2022/10/03 01:54:20;;;;;;;;;16.75;11.25;;;;;;;;5083157;28;61957;-74
2022/10/03 01:57:04;;;;;;;;;12.00;9.75;;;;;;;;5081414;27;61949;-74
2022/10/03 01:59:46;;;;;;;;;15.00;10.75;;;;;;;;5083018;28;61845;-74
2022/10/03 02:02:20;;;;;;;;;8.25;8.25;;;;;;;;5082260;28;62682;-74
2022/10/03 02:04:57;;;;;;;;;10.25;9.50;;;;;;;;5083155;28;62070;-74
2022/10/03 02:07:34;;;;;;;;;13.00;9.00;;;;;;;;5081450;28;61936;-75
2022/10/03 02:10:12;;;;;;;;;15.75;9.50;;;;;;;;5083049;28;61786;-74
2022/10/03 02:12:47;;;;;;;;;12.00;11.00;;;;;;;;5082502;28;61846;-75
2022/10/03 02:15:15;;;;;;;;;16.25;12.75;;;;;;;;5082923;28;61785;-74
2022/10/03 02:17:51;;;;;;;;;13.00;9.50;;;;;;;;5082442;28;61969;-75
2022/10/03 02:20:16;;;;;;;;;13.50;9.75;;;;;;;;5081297;28;62175;-75
2022/10/03 02:22:43;;;;;;;;;13.00;10.75;;;;;;;;5080138;28;61854;-75
2022/10/03 02:25:15;;;;;;;;;13.00;11.00;;;;;;;;5082488;28;62178;-75
2022/10/03 02:27:43;;;;;;;;;11.25;10.25;;;;;;;;5082683;28;61944;-74
2022/10/03 02:30:18;;;;;;;;;14.00;11.75;;;;;;;;5082734;28;62067;-75
2022/10/03 02:33:02;;;;;;;;;13.00;12.00;;;;;;;;5082118;28;62727;-75
2022/10/03 02:35:43;;;;;;;;;13.00;10.50;;;;;;;;5081028;28;61948;-74
2022/10/03 02:38:18;;;;;;;;;13.50;12.50;;;;;;;;5081282;28;61821;-75
2022/10/03 02:41:01;;;;;;;;;13.00;10.75;;;;;;;;5081060;28;61810;-75
2022/10/03 02:43:45;;;;;;;;;13.75;9.00;;;;;;;;5081749;28;62007;-74
2022/10/03 02:46:34;;;;;;;;;8.50;8.50;;;;;;;;5080640;28;61769;-75
2022/10/03 02:49:11;;;;;;;;;16.00;12.50;;;;;;;;5019524;28;62258;-75
2022/10/03 02:51:54;;;;;;;;;11.75;10.25;;;;;;;;5002935;28;61832;-74
2022/10/03 02:54:22;;;;;;;;;15.50;12.00;;;;;;;;5001692;28;65124;-74
2022/10/03 02:57:06;;;;;;;;;13.50;12.75;;;;;;;;5018815;28;62015;-74
2022/10/03 02:59:55;;;;;;;;;11.25;10.50;;;;;;;;5002433;28;62068;-74
2022/10/03 03:02:39;;;;;;;;;16.50;14.25;;;;;;;;5007979;28;62083;-74
2022/10/03 03:05:09;;;;;;;;;15.50;13.00;;;;;;;;5022639;28;62510;-75
2022/10/03 03:07:54;;;;;;;;;14.00;11.25;;;;;;;;5005742;28;61773;-74
2022/10/03 03:10:27;;;;;;;;;10.75;9.50;;;;;;;;5006044;28;62320;-74
2022/10/03 03:12:57;;;;;;;;;13.00;11.50;;;;;;;;5023143;28;62053;-74
2022/10/03 03:15:26;;;;;;;;;16.00;11.75;;;;;;;;5021844;28;61910;-75
2022/10/03 03:17:52;;;;;;;;;14.25;11.00;;;;;;;;5022818;28;62066;-74
2022/10/03 03:20:40;;;;;;;;;20.00;12.25;;;;;;;;5005804;28;62093;-74
2022/10/03 03:23:23;;;;;;;;;17.25;14.50;;;;;;;;5022592;28;62002;-75
2022/10/03 03:26:06;;;;;;;;;18.25;12.25;;;;;;;;5047048;28;61944;-74
2022/10/03 03:28:44;;;;;;;;;17.25;14.75;;;;;;;;5085200;28;61892;-74
2022/10/03 03:31:09;;;;;;;;;17.25;13.50;;;;;;;;5085650;28;61960;-74
2022/10/03 03:33:34;;;;;;;;;13.75;12.00;;;;;;;;5085378;28;61728;-74
2022/10/03 03:36:04;;;;;;;;;14.00;14.00;;;;;;;;5083176;28;64919;-75
2022/10/03 03:38:38;;;;;;;;;21.00;14.50;;;;;;;;5085319;28;61797;-74
2022/10/03 03:41:04;;;;;;;;;17.00;13.00;;;;;;;;5085014;28;62090;-74
2022/10/03 03:43:29;;;;;;;;;17.75;14.25;;;;;;;;5085201;28;61821;-74
2022/10/03 03:45:59;;;;;;;;;23.00;19.50;;;;;;;;5084712;28;62153;-74
2022/10/03 03:48:41;;;;;;;;;28.25;22.25;;;;;;;;5085160;28;62135;-75
2022/10/03 03:51:32;;;;;;;;;42.75;32.50;;;;;;;;5085374;28;61751;-74
2022/10/03 03:54:03;;;;;;;;;44.50;32.25;;;;;;;;5085211;28;61738;-74
2022/10/03 03:56:28;;;;;;;;;40.75;31.50;;;;;;;;5083657;28;62196;-74
2022/10/03 03:59:00;;;;;;;;;40.75;30.75;;;;;;;;5083306;28;61933;-74
2022/10/03 04:01:25;;;;;;;;;40.50;28.25;;;;;;;;5083705;28;61725;-75
2022/10/03 04:04:06;;;;;;;;;34.50;23.25;;;;;;;;5084694;28;62038;-74
2022/10/03 04:06:50;;;;;;;;;22.00;18.00;;;;;;;;5084002;28;61882;-75
2022/10/03 04:09:25;;;;;;;;;24.00;18.50;;;;;;;;5084864;28;61777;-74
2022/10/03 04:11:58;;;;;;;;;20.75;14.50;;;;;;;;5084132;28;62477;-74
2022/10/03 04:14:29;;;;;;;;;15.50;14.00;;;;;;;;5082532;28;61861;-74
2022/10/03 04:19:54;;;;;;;;;17.50;12.25;;;;;;;;5084471;28;61997;-74
2022/10/03 04:22:27;;;;;;;;;18.25;13.50;;;;;;;;5082717;27;62070;-75
2022/10/03 04:24:55;;;;;;;;;11.00;9.75;;;;;;;;5082593;28;62236;-75
2022/10/03 04:27:23;;;;;;;;;13.25;11.25;;;;;;;;5082374;28;64149;-74
2022/10/03 04:30:01;;;;;;;;;14.25;8.75;;;;;;;;5084271;28;62079;-74
2022/10/03 04:32:36;;;;;;;;;10.00;9.00;;;;;;;;5084411;28;61801;-74
2022/10/03 04:35:10;;;;;;;;;12.00;7.25;;;;;;;;5083034;27;61797;-74
2022/10/03 04:37:45;;;;;;;;;21.00;12.00;;;;;;;;5083573;28;63030;-75
2022/10/03 04:40:20;;;;;;;;;16.50;9.25;;;;;;;;5083959;28;61794;-74
2022/10/03 04:42:58;;;;;;;;;13.50;12.25;;;;;;;;5084186;28;62124;-74
2022/10/03 04:45:30;;;;;;;;;16.25;13.50;;;;;;;;5083003;28;61725;-74
2022/10/03 04:47:58;;;;;;;;;13.75;11.75;;;;;;;;5083436;28;61958;-74
2022/10/03 04:50:29;;;;;;;;;18.50;12.25;;;;;;;;5084397;28;61668;-74
2022/10/03 04:52:55;;;;;;;;;12.25;8.50;;;;;;;;5083944;28;62585;-74
2022/10/03 04:55:34;;;;;;;;;14.50;11.00;;;;;;;;5083382;28;62039;-74
2022/10/03 04:58:22;;;;;;;;;13.25;11.50;;;;;;;;5081897;28;64187;-74
2022/10/03 05:00:47;;;;;;;;;18.00;10.00;;;;;;;;5083717;28;61808;-74
2022/10/03 05:03:12;;;;;;;;;11.75;7.75;;;;;;;;5084235;28;61904;-74
2022/10/03 05:05:51;;;;;;;;;10.25;7.50;;;;;;;;5084143;28;62162;-74
2022/10/03 05:08:36;;;;;;;;;9.75;9.00;;;;;;;;5081500;28;65004;-74
2022/10/03 05:11:18;;;;;;;;;10.75;9.00;;;;;;;;5082983;28;62099;-74
2022/10/03 05:13:46;;;;;;;;;11.25;10.00;;;;;;;;5083728;28;61683;-75
2022/10/03 05:16:22;;;;;;;;;10.00;8.75;;;;;;;;5082725;28;62144;-75
2022/10/03 05:19:06;;;;;;;;;10.75;8.25;;;;;;;;5083146;28;63068;-75
2022/10/03 05:21:37;;;;;;;;;10.00;10.00;;;;;;;;5082107;28;61873;-75
2022/10/03 05:24:14;;;;;;;;;15.00;10.25;;;;;;;;5080888;27;61847;-75
2022/10/03 05:27:02;;;;;;;;;13.00;7.75;;;;;;;;5080673;28;62433;-74
2022/10/03 05:29:37;;;;;;;;;10.50;9.00;;;;;;;;5080759;28;63001;-73
2022/10/03 05:32:02;;;;;;;;;12.25;11.00;;;;;;;;5082885;27;61707;-73
2022/10/03 05:34:37;;;;;;;;;9.50;9.00;;;;;;;;5083081;27;61878;-75
2022/10/03 05:37:06;;;;;;;;;12.00;9.00;;;;;;;;5110950;27;61764;-76
2022/10/03 05:39:34;;;;;;;;;16.00;10.00;;;;;;;;5081709;28;62140;-75
2022/10/03 05:42:15;;;;;;;;;16.50;12.00;;;;;;;;5081421;27;61824;-75
2022/10/03 05:44:49;;;;;;;;;18.75;11.75;;;;;;;;5079105;28;62028;-75
2022/10/03 05:47:44;;;;;;;;;14.50;11.25;;;;;;;;5080306;28;62216;-75
2022/10/03 05:50:09;;;;;;;;;12.50;10.50;;;;;;;;5081470;28;61830;-75
2022/10/03 05:52:38;;;;;;;;;16.00;14.25;;;;;;;;5081339;28;61996;-75
2022/10/03 05:55:07;;;;;;;;;16.50;11.50;;;;;;;;5081631;28;62135;-74
2022/10/03 05:57:51;;;;;;;;;14.25;11.00;;;;;;;;5083083;28;61715;-74
2022/10/03 06:00:20;;;;;;;;;12.25;11.75;;;;;;;;5080654;28;63826;-74
2022/10/03 06:03:15;;;;;;;;;12.75;9.00;;;;;;;;5083146;28;61900;-75
2022/10/03 06:05:59;;;;;;;;;14.50;12.25;;;;;;;;5081708;28;61819;-76
2022/10/03 06:08:43;;;;;;;;;8.00;7.75;;;;;;;;5082680;28;62354;-80
2022/10/03 06:11:09;;;;;;;;;14.00;13.00;;;;;;;;5081459;28;61800;-83
2022/10/03 06:13:46;;;;;;;;;15.25;13.50;;;;;;;;5081391;28;61726;-82
2022/10/03 06:16:30;;;;;;;;;15.00;10.00;;;;;;;;5081313;28;61888;-82
2022/10/03 06:19:02;;;;;;;;;14.50;11.75;;;;;;;;5083121;27;61964;-81
2022/10/03 06:21:40;;;;;;;;;14.25;10.25;;;;;;;;5082412;28;62603;-82
2022/10/03 06:24:18;;;;;;;;;18.25;13.50;;;;;;;;5080269;28;61930;-82
2022/10/03 06:27:02;;;;;;;;;15.00;10.00;;;;;;;;5081051;28;61818;-81
2022/10/03 06:29:46;;;;;;;;;14.25;12.75;;;;;;;;5081364;28;61929;-81
2022/10/03 06:32:26;;;;;;;;;15.50;13.25;;;;;;;;5081636;28;62068;-81
2022/10/03 06:35:05;;;;;;;;;18.25;13.75;;;;;;;;5082648;28;61735;-82
2022/10/03 06:37:30;;;;;;;;;15.75;12.50;;;;;;;;5083850;28;62105;-78
2022/10/03 06:40:14;;;;;;;;;14.00;12.00;;;;;;;;5084898;28;61781;-80
2022/10/03 06:42:45;;;;;;;;;7.25;6.00;;;;;;;;5084583;28;63753;-80
2022/10/03 06:45:22;;;;;;;;;14.50;12.25;;;;;;;;5085025;28;61861;-79
2022/10/03 06:48:07;;;;;;;;;17.25;13.25;;;;;;;;5085686;28;61696;-80
2022/10/03 06:50:51;;;;;;;;;9.00;7.50;;;;;;;;5085679;28;61726;-79
2022/10/03 06:53:34;;;;;;;;;11.25;10.25;;;;;;;;5084567;28;61911;-79
2022/10/03 06:56:18;;;;;;;;;16.00;10.00;;;;;;;;5085115;28;61921;-79
2022/10/03 06:59:09;;;;;;;;;10.50;7.50;;;;;;;;5085631;28;61865;-79
2022/10/03 07:01:54;;;;;;;;;14.50;11.00;;;;;;;;5022786;28;62149;-79
2022/10/03 07:04:22;;;;;;;;;14.00;10.00;;;;;;;;5021588;28;63267;-79
2022/10/03 07:07:14;;;;;;;;;13.75;10.50;;;;;;;;5005757;28;62485;-79
2022/10/03 07:09:52;;;;;;;;;12.25;10.50;;;;;;;;4944308;28;62356;-79
2022/10/03 07:12:36;;;;;;;;;10.00;7.50;;;;;;;;4944320;28;61964;-79
2022/10/03 07:15:21;;;;;;;;;9.75;7.75;;;;;;;;4943703;28;65010;-79
2022/10/03 07:17:46;;;;;;;;;8.25;6.50;;;;;;;;4944302;28;61803;-79
2022/10/03 07:20:14;;;;;;;;;7.75;5.25;;;;;;;;4944034;28;62308;-79
2022/10/03 07:22:39;;;;;;;;;14.00;12.00;;;;;;;;4944041;28;61917;-79
2022/10/03 07:25:28;;;;;;;;;13.50;7.50;;;;;;;;4943326;28;62046;-79
2022/10/03 07:27:59;;;;;;;;;9.25;8.25;;;;;;;;4944193;28;61956;-79
2022/10/03 07:30:30;;;;;;;;;8.50;7.50;;;;;;;;4943876;28;61787;-79
2022/10/03 07:33:06;;;;;;;;;8.75;7.50;;;;;;;;4944249;28;61854;-79
2022/10/03 07:39:03;;;;;;;;;8.25;6.00;;;;;;;;4976469;28;62482;-79
2022/10/03 07:41:30;;;;;;;;;11.00;6.25;;;;;;;;4989151;28;62129;-79
2022/10/03 07:44:04;;;;;;;;;9.25;5.00;;;;;;;;4986460;28;61904;-79
2022/10/03 07:46:33;;;;;;;;;7.00;7.00;;;;;;;;5031790;28;65047;-80
2022/10/03 07:49:17;;;;;;;;;14.00;8.25;;;;;;;;5083593;28;61904;-80
2022/10/03 07:51:48;;;;;;;;;10.50;6.25;;;;;;;;5085021;28;61760;-80
2022/10/03 07:54:28;;;;;;;;;7.50;5.00;;;;;;;;5085012;27;61756;-79
2022/10/03 07:56:56;;;;;;;;;12.00;9.25;;;;;;;;5084088;28;62186;-79
2022/10/03 07:59:40;;;;;;;;;7.50;5.00;;;;;;;;5083453;27;61700;-79
2022/10/03 08:02:12;;;;;;;;;11.25;8.25;;;;;;;;5084995;28;61873;-79
2022/10/03 08:04:38;;;;;;;;;6.75;6.75;;;;;;;;5084856;27;61800;-80
2022/10/03 08:07:12;;;;;;;;;14.00;9.75;;;;;;;;5084116;28;63130;-80
2022/10/03 08:09:50;;;;;;;;;6.25;6.25;;;;;;;;5083285;28;62191;-80
2022/10/03 08:12:30;;;;;;;;;8.00;3.50;;;;;;;;5083289;27;62114;-80
2022/10/03 08:15:03;;;;;;;;;7.50;6.50;;;;;;;;5083637;28;62096;-79
2022/10/03 08:17:53;;;;;;;;;8.50;7.75;;;;;;;;5083716;27;61886;-80
2022/10/03 08:20:22;;;;;;;;;5.00;5.00;;;;;;;;5084497;27;61754;-78
2022/10/03 08:22:51;;;;;;;;;12.25;7.75;;;;;;;;5082648;28;62017;-79
2022/10/03 08:25:28;;;;;;;;;9.25;6.50;;;;;;;;5084239;28;62333;-79
2022/10/03 08:28:21;;;;;;;;;11.75;10.00;;;;;;;;5083748;28;61750;-79
2022/10/03 08:31:01;;;;;;;;;10.75;9.00;;;;;;;;5084434;28;61780;-79
2022/10/03 08:33:45;;;;;;;;;9.00;8.25;;;;;;;;5084059;28;61829;-80
2022/10/03 08:36:20;;;;;;;;;12.75;8.25;;;;;;;;5082962;28;61842;-79
2022/10/03 08:38:55;;;;;;;;;14.00;11.50;;;;;;;;5083486;28;61883;-80
2022/10/03 08:41:39;;;;;;;;;11.25;10.50;;;;;;;;5082605;27;61699;-80
2022/10/03 08:44:43;;;;;;;;;12.25;9.50;;;;;;;;5084438;28;61765;-79
2022/10/03 08:47:14;;;;;;;;;10.75;7.75;;;;;;;;5041244;28;61834;-79
2022/10/03 08:49:58;;;;;;;;;10.75;10.75;;;;;;;;5040423;28;63018;-79
2022/10/03 08:52:29;;;;;;;;;7.75;7.75;;;;;;;;5024339;28;62014;-80
2022/10/03 08:55:01;;;;;;;;;19.25;9.75;;;;;;;;5023999;28;61998;-79
2022/10/03 08:57:44;;;;;;;;;9.00;9.00;;;;;;;;5040691;28;62221;-79
2022/10/03 09:00:14;;;;;;;;;9.75;9.75;;;;;;;;5039796;28;63140;-79
2022/10/03 09:02:42;;;;;;;;;14.00;12.00;;;;;;;;5040667;28;62338;-79
2022/10/03 09:05:07;;;;;;;;;14.25;9.50;;;;;;;;5041255;28;61843;-79
2022/10/03 09:07:51;;;;;;;;;12.00;9.00;;;;;;;;5024100;28;62398;-79
2022/10/03 09:10:26;;;;;;;;;12.50;8.00;;;;;;;;5023215;28;65093;-79
2022/10/03 09:13:06;;;;;;;;;11.25;9.75;;;;;;;;5040577;28;62040;-79
2022/10/03 09:15:51;;;;;;;;;9.75;9.00;;;;;;;;5024138;28;61834;-79
2022/10/03 09:18:22;;;;;;;;;8.00;8.00;;;;;;;;5060644;28;62036;-80
2022/10/03 09:20:47;;;;;;;;;10.25;8.00;;;;;;;;5081269;28;64772;-79
2022/10/03 09:23:24;;;;;;;;;10.75;9.50;;;;;;;;5082847;28;61860;-79
2022/10/03 09:26:07;;;;;;;;;14.50;11.75;;;;;;;;5083359;28;61675;-79
2022/10/03 09:28:35;;;;;;;;;14.75;11.25;;;;;;;;5083741;28;62125;-80
2022/10/03 09:31:02;;;;;;;;;17.00;13.50;;;;;;;;5082603;28;61935;-80
2022/10/03 09:33:46;;;;;;;;;12.75;10.50;;;;;;;;5083453;28;61733;-80
2022/10/03 09:36:30;;;;;;;;;17.00;14.00;;;;;;;;5083373;28;61918;-80
2022/10/03 09:38:55;;;;;;;;;11.75;9.00;;;;;;;;5083581;28;61655;-79
2022/10/03 09:41:24;;;;;;;;;10.75;10.25;;;;;;;;5081137;28;64118;-80
2022/10/03 09:44:08;;;;;;;;;16.25;9.75;;;;;;;;5083108;28;61961;-80
2022/10/03 09:46:33;;;;;;;;;13.75;11.00;;;;;;;;5083032;28;61935;-80
2022/10/03 09:49:04;;;;;;;;;14.25;11.25;;;;;;;;5081692;28;61745;-79
2022/10/03 09:51:51;;;;;;;;;11.75;10.00;;;;;;;;5082119;28;61889;-79
2022/10/03 09:54:31;;;;;;;;;13.00;12.00;;;;;;;;5059877;28;61881;-79
2022/10/03 09:57:17;;;;;;;;;13.50;10.50;;;;;;;;5042455;28;62591;-80
2022/10/03 09:59:48;;;;;;;;;12.25;12.25;;;;;;;;5060150;28;61944;-79
2022/10/03 10:02:32;;;;;;;;;11.25;9.25;;;;;;;;5059811;28;62354;-79
2022/10/03 10:05:21;;;;;;;;;14.75;12.50;;;;;;;;5059519;28;61861;-79
2022/10/03 10:07:58;;;;;;;;;13.25;11.25;;;;;;;;5059553;28;62091;-79
2022/10/03 10:10:32;;;;;;;;;11.25;10.00;;;;;;;;5042905;28;61981;-79
2022/10/03 10:12:57;;;;;;;;;12.00;10.50;;;;;;;;5041333;28;64849;-80
2022/10/03 10:15:41;;;;;;;;;13.50;10.25;;;;;;;;5042745;28;61921;-79
2022/10/03 10:18:18;;;;;;;;;10.50;8.00;;;;;;;;5042930;28;61905;-79
2022/10/03 10:20:53;;;;;;;;;10.25;9.75;;;;;;;;5060038;28;62247;-80
2022/10/03 10:23:37;;;;;;;;;10.75;9.25;;;;;;;;5058657;28;61987;-79
2022/10/03 10:26:08;;;;;;;;;9.25;8.50;;;;;;;;5059369;28;61823;-79
2022/10/03 10:28:36;;;;;;;;;16.25;12.00;;;;;;;;5059684;28;62199;-79
2022/10/03 10:31:20;;;;;;;;;13.25;11.00;;;;;;;;5060649;28;61839;-80
2022/10/03 10:34:12;;;;;;;;;19.00;13.75;;;;;;;;5061674;28;61751;-79
2022/10/03 10:36:56;;;;;;;;;17.75;12.00;;;;;;;;5062753;28;61861;-79
2022/10/03 10:39:33;;;;;;;;;13.50;11.75;;;;;;;;5080145;28;62000;-80
2022/10/03 10:42:04;;;;;;;;;14.75;13.75;;;;;;;;5062866;28;62482;-79
2022/10/03 10:44:29;;;;;;;;;20.00;12.50;;;;;;;;5062198;28;63994;-79
2022/10/03 10:47:00;;;;;;;;;39.25;30.50;;;;;;;;5079093;28;62200;-79
2022/10/03 10:49:32;;;;;;;;;19.75;14.75;;;;;;;;5062893;28;61845;-79
2022/10/03 10:52:06;;;;;;;;;21.50;13.75;;;;;;;;5062943;28;61924;-79
2022/10/03 10:54:34;;;;;;;;;13.00;10.50;;;;;;;;5078905;28;61988;-79
2022/10/03 10:57:03;;;;;;;;;12.00;9.75;;;;;;;;5078840;28;62058;-79
2022/10/03 10:59:47;;;;;;;;;16.25;13.75;;;;;;;;5079409;28;61967;-79
2022/10/03 11:02:27;;;;;;;;;17.50;13.75;;;;;;;;5079858;28;62037;-79
2022/10/03 11:05:01;;;;;;;;;25.25;18.75;;;;;;;;5078973;28;62879;-79
2022/10/03 11:07:33;;;;;;;;;13.75;13.75;;;;;;;;5062316;28;61720;-79
2022/10/03 11:10:17;;;;;;;;;18.50;12.00;;;;;;;;5079540;28;61842;-79
2022/10/03 11:12:48;;;;;;;;;11.00;10.00;;;;;;;;5076481;28;62281;-79
2022/10/03 11:15:25;;;;;;;;;17.25;13.75;;;;;;;;5061153;28;61974;-79
2022/10/03 11:18:02;;;;;;;;;17.50;12.50;;;;;;;;5060271;28;61851;-79
2022/10/03 11:20:46;;;;;;;;;17.50;14.75;;;;;;;;5060366;28;61842;-79
2022/10/03 11:23:32;;;;;;;;;19.00;17.00;;;;;;;;5071463;28;61837;-80
2022/10/03 11:26:17;;;;;;;;;20.00;14.75;;;;;;;;5084047;28;62715;-79
2022/10/03 11:29:17;;;;;;;;;17.00;15.75;;;;;;;;5085049;28;61891;-79
2022/10/03 11:31:45;;;;;;;;;20.50;14.75;;;;;;;;5022441;28;62045;-79
2022/10/03 11:34:20;;;;;;;;;13.00;11.00;;;;;;;;5005634;28;61850;-79
2022/10/03 11:37:04;;;;;;;;;17.50;12.75;;;;;;;;5005005;28;63525;-79
2022/10/03 11:39:29;;;;;;;;;16.25;14.75;;;;;;;;5022057;28;62295;-79
2022/10/03 11:42:01;;;;;;;;;22.25;17.25;;;;;;;;5005442;28;61992;-79
2022/10/03 11:44:30;;;;;;;;;16.50;13.00;;;;;;;;5006030;28;61866;-79
2022/10/03 11:47:22;;;;;;;;;17.75;12.00;;;;;;;;5021346;28;61986;-79
2022/10/03 11:50:11;;;;;;;;;22.00;13.75;;;;;;;;4943902;28;62175;-79
2022/10/03 11:52:45;;;;;;;;;14.25;13.00;;;;;;;;4943742;28;61984;-79
2022/10/03 11:55:19;;;;;;;;;18.25;15.50;;;;;;;;4943315;28;62050;-79
2022/10/03 11:57:50;;;;;;;;;18.75;13.00;;;;;;;;4942757;28;63984;-79
2022/10/03 12:00:17;;;;;;;;;17.25;16.00;;;;;;;;4943453;28;62286;-79
2022/10/03 12:02:54;;;;;;;;;18.00;13.00;;;;;;;;4943663;28;62148;-79
2022/10/03 12:05:28;;;;;;;;;13.50;13.50;;;;;;;;4956509;28;61997;-79
2022/10/03 12:10:59;;;;;;;;;13.50;11.00;;;;;;;;4981772;28;61824;-79
2022/10/03 12:13:32;;;;;;;;;15.00;13.75;;;;;;;;4982283;28;61882;-79
2022/10/03 12:15:59;;;;;;;;;21.25;14.25;;;;;;;;4998907;28;61993;-79
2022/10/03 12:18:41;;;;;;;;;18.25;14.00;;;;;;;;4981459;28;61912;-79
2022/10/03 12:21:06;;;;;;;;;19.50;13.50;;;;;;;;4982057;28;61962;-79
2022/10/03 12:23:43;;;;;;;;;15.75;13.00;;;;;;;;4965470;28;61781;-79
2022/10/03 12:26:14;;;;;;;;;17.00;12.00;;;;;;;;5000137;28;62184;-80
2022/10/03 12:28:43;;;;;;;;;9.75;9.75;;;;;;;;5041751;28;64190;-79
2022/10/03 12:31:14;;;;;;;;;13.00;12.00;;;;;;;;5042597;28;61984;-80
2022/10/03 12:33:48;;;;;;;;;13.00;10.75;;;;;;;;5042403;28;61835;-80
2022/10/03 12:36:23;;;;;;;;;16.50;10.50;;;;;;;;5043211;28;61820;-78
2022/10/03 12:39:06;;;;;;;;;13.25;10.50;;;;;;;;5042985;28;61795;-79
2022/10/03 12:41:34;;;;;;;;;17.00;12.25;;;;;;;;5043407;28;61903;-80
2022/10/03 12:44:18;;;;;;;;;11.25;11.00;;;;;;;;5042631;28;61927;-80
2022/10/03 12:46:54;;;;;;;;;14.50;11.00;;;;;;;;5043880;28;61732;-80
2022/10/03 12:49:48;;;;;;;;;12.50;11.00;;;;;;;;5042800;28;62059;-80
2022/10/03 12:52:17;;;;;;;;;11.25;10.00;;;;;;;;5033174;28;62098;-80
2022/10/03 12:54:50;;;;;;;;;13.00;11.00;;;;;;;;5047530;28;62110;-79
2022/10/03 12:57:19;;;;;;;;;11.75;11.75;;;;;;;;5082317;28;61710;-80
2022/10/03 12:59:50;;;;;;;;;12.33;10.67;;;;;;;;5083354;28;61857;-80
2022/10/03 13:02:24;;;;;;;;;8.67;7.00;;;;;;;;5082321;28;61742;-80
2022/10/03 13:05:09;;;;;;;;;9.67;7.67;;;;;;;;5083941;28;61892;-80
2022/10/03 13:07:52;;;;;;;;;12.75;10.25;;;;;;;;5083823;28;62046;-80
2022/10/03 13:10:41;;;;;;;;;11.33;9.00;;;;;;;;5082908;28;62142;-80
2022/10/03 13:13:22;;;;;;;;;8.67;8.00;;;;;;;;5078117;27;61877;-80
2022/10/03 13:15:51;;;;;;;;;11.33;7.00;;;;;;;;5083952;28;62627;-80
2022/10/03 13:18:19;;;;;;;;;12.67;9.00;;;;;;;;5082228;28;61866;-80
2022/10/03 13:21:01;;;;;;;;;14.33;12.00;;;;;;;;5083102;28;61854;-80
2022/10/03 13:23:42;;;;;;;;;11.67;10.67;;;;;;;;5082613;28;61702;-80
2022/10/03 13:26:08;;;;;;;;;16.67;11.67;;;;;;;;5083253;28;61908;-80
2022/10/03 13:28:49;;;;;;;;;9.33;8.33;;;;;;;;5082025;28;61903;-80
2022/10/03 13:31:23;;;;;;;;;13.33;11.00;;;;;;;;5081526;28;63752;-80
2022/10/03 13:33:53;;;;;;;;;16.33;9.00;;;;;;;;5081753;28;62134;-81
2022/10/03 13:36:18;;;;;;;;;10.33;9.33;;;;;;;;5082774;28;61991;-80
2022/10/03 13:39:01;;;;;;;;;11.67;11.67;;;;;;;;5081770;28;61785;-80
2022/10/03 13:41:29;;;;;;;;;14.33;11.00;;;;;;;;5080883;28;63936;-81
2022/10/03 13:44:09;;;;;;;;;10.67;10.33;;;;;;;;5081988;28;61821;-80
2022/10/03 13:46:52;;;;;;;;;12.67;10.67;;;;;;;;5082911;28;61991;-80
2022/10/03 13:49:33;;;;;;;;;13.33;10.00;;;;;;;;5082103;28;61814;-81
2022/10/03 13:52:17;;;;;;;;;11.00;9.33;;;;;;;;5080963;28;64838;-80
2022/10/03 13:55:01;;;;;;;;;12.67;10.67;;;;;;;;5081209;28;62037;-80
2022/10/03 13:57:31;;;;;;;;;10.67;8.33;;;;;;;;5080960;28;61717;-80
2022/10/03 14:00:12;;;;;;;;;9.00;8.33;;;;;;;;5083196;28;61855;-80
2022/10/03 14:02:40;;;;;;;;;9.67;8.33;;;;;;;;5080850;28;64830;-80
2022/10/03 14:05:18;;;;;;;;;10.00;7.00;;;;;;;;5081806;28;62091;-80
2022/10/03 14:08:02;;;;;;;;;8.67;7.00;;;;;;;;5081007;28;62054;-80
2022/10/03 14:10:47;;;;;;;;;10.00;10.00;;;;;;;;5082469;28;61917;-80
2022/10/03 14:13:16;;;;;;;;;13.33;10.67;;;;;;;;5081149;28;63666;-80
2022/10/03 14:15:49;;;;;;;;;13.00;10.67;;;;;;;;5081197;28;61938;-80
2022/10/03 14:18:34;;;;;;;;;17.00;12.00;;;;;;;;5082793;28;61904;-80
2022/10/03 14:21:18;;;;;;;;;14.00;13.00;;;;;;;;5081184;28;61915;-80
2022/10/03 14:23:43;;;;;;;;;10.33;8.67;;;;;;;;5081401;28;62806;-81
2022/10/03 14:26:09;;;;;;;;;15.33;8.67;;;;;;;;5081018;28;61910;-80
2022/10/03 14:28:57;;;;;;;;;7.67;6.33;;;;;;;;5082634;28;61894;-80
2022/10/03 14:31:47;;;;;;;;;6.67;6.67;;;;;;;;5082805;27;61852;-80
2022/10/03 14:34:21;;;;;;;;;7.33;7.33;;;;;;;;5080587;28;64183;-80
2022/10/03 14:36:52;;;;;;;;;8.67;7.00;;;;;;;;5080630;28;61970;-80
2022/10/03 14:39:38;;;;;;;;;14.67;6.33;;;;;;;;5081138;28;61925;-80
2022/10/03 14:42:22;;;;;;;;;10.67;8.33;;;;;;;;5080160;28;61663;-80
2022/10/03 14:44:56;;;;;;;;;12.33;8.00;;;;;;;;5080002;28;63677;-81
2022/10/03 14:47:22;;;;;;;;;10.00;7.67;;;;;;;;5081115;28;62027;-82
2022/10/03 14:49:55;;;;;;;;;10.67;7.67;;;;;;;;5080080;27;61798;-82
2022/10/03 14:52:35;;;;;;;;;10.00;7.00;;;;;;;;5078708;28;61879;-78
2022/10/03 14:55:12;;;;;;;;;7.33;6.67;;;;;;;;5076323;28;63661;-78
2022/10/03 14:57:44;;;;;;;;;6.33;6.33;;;;;;;;5078007;28;61881;-78
2022/10/03 15:00:22;;;;;;;;;9.67;8.00;;;;;;;;5082612;28;61940;-78
2022/10/03 15:02:49;;;;;;;;;8.67;6.33;;;;;;;;5084501;27;61954;-78
2022/10/03 15:05:23;;;;;;;;;5.67;5.33;;;;;;;;5081907;28;63505;-78
2022/10/03 15:07:49;;;;;;;;;11.00;6.33;;;;;;;;5081785;28;61909;-78
2022/10/03 15:10:17;;;;;;;;;8.00;6.67;;;;;;;;5081525;27;62031;-78
2022/10/03 15:12:46;;;;;;;;;8.67;7.67;;;;;;;;5082218;28;61936;-78
2022/10/03 15:15:18;;;;;;;;;8.00;6.33;;;;;;;;5082106;28;64074;-80
2022/10/03 15:17:47;;;;;;;;;6.00;5.67;;;;;;;;5083701;27;61882;-80
2022/10/03 15:20:16;;;;;;;;;8.00;6.00;;;;;;;;5082352;28;61928;-80
2022/10/03 15:22:46;;;;;;;;;8.33;7.00;;;;;;;;5082634;27;61939;-80
2022/10/03 15:25:16;;;;;;;;;6.33;6.33;;;;;;;;5083058;27;61915;-81
2022/10/03 15:27:43;;;;;;;;;24.50;23.50;;;;;;;;5080508;28;62112;-81